createdAt,value
2018-12-12T00:00:56.764Z,10.05
2018-12-12T00:03:27.748Z,8.93
2018-12-12T00:05:58.599Z,8.30
2018-12-12T00:08:27.507Z,10.53
2018-12-12T00:10:56.388Z,8.00
2018-12-12T00:13:25.363Z,10.28
2018-12-12T00:15:54.512Z,10.43
2018-12-12T00:18:23.649Z,10.72
2018-12-12T00:20:52.530Z,9.80
2018-12-12T00:23:21.787Z,9.80
2018-12-12T00:25:50.731Z,10.72
2018-12-12T00:28:19.745Z,9.43
2018-12-12T00:30:48.656Z,9.53
2018-12-12T00:33:17.572Z,11.53
2018-12-12T00:35:46.487Z,11.48
2018-12-12T00:38:15.404Z,9.85
2018-12-12T00:40:44.511Z,11.30
2018-12-12T00:43:13.380Z,12.65
2018-12-12T00:45:42.299Z,11.40
2018-12-12T00:48:11.280Z,11.50
2018-12-12T00:50:40.173Z,10.98
2018-12-12T00:53:09.068Z,11.33
2018-12-12T00:55:38.007Z,11.60
2018-12-12T00:58:06.923Z,11.80
2018-12-12T01:00:35.803Z,11.63
2018-12-12T01:03:04.816Z,13.83
2018-12-12T01:05:33.948Z,10.55
2018-12-12T01:08:02.772Z,9.75
2018-12-12T01:10:33.235Z,13.22
2018-12-12T01:13:02.113Z,11.93
2018-12-12T01:15:30.991Z,13.83
2018-12-12T01:18:00.020Z,12.33
2018-12-12T01:20:29.151Z,10.00
2018-12-12T01:22:57.985Z,11.63
2018-12-12T01:25:26.859Z,12.53
2018-12-12T01:27:55.824Z,12.28
2018-12-12T01:30:24.761Z,13.25
2018-12-12T01:32:53.656Z,13.17
2018-12-12T01:35:22.573Z,13.78
2018-12-12T01:37:51.571Z,13.40
2018-12-12T01:40:20.564Z,13.03
2018-12-12T01:42:49.416Z,14.20
2018-12-12T01:45:18.315Z,13.62
2018-12-12T01:47:47.288Z,13.15
2018-12-12T01:50:16.200Z,14.30
2018-12-12T01:52:45.118Z,13.83
2018-12-12T01:55:14.213Z,14.65
2018-12-12T01:57:43.107Z,13.83
2018-12-12T02:00:12.029Z,13.62
2018-12-12T02:02:40.931Z,12.53
2018-12-12T02:05:09.898Z,11.63
2018-12-12T02:07:39.140Z,13.28
2018-12-12T02:10:08.300Z,13.47
2018-12-12T02:12:37.208Z,11.75
2018-12-12T02:15:06.495Z,14.10
2018-12-12T02:17:35.385Z,15.40
2018-12-12T02:20:04.660Z,13.05
2018-12-12T02:22:33.579Z,15.45
2018-12-12T02:25:02.638Z,12.95
2018-12-12T02:27:31.568Z,15.75
2018-12-12T02:30:00.576Z,13.15
2018-12-12T02:32:29.505Z,13.20
2018-12-12T02:34:58.381Z,11.35
2018-12-12T02:37:27.335Z,13.72
2018-12-12T02:39:56.343Z,11.48
2018-12-12T02:42:25.254Z,13.70
2018-12-12T02:44:54.309Z,10.63
2018-12-12T02:47:23.220Z,13.58
2018-12-12T02:49:52.098Z,11.80
2018-12-12T02:52:21.090Z,14.23
2018-12-12T02:54:49.991Z,12.18
2018-12-12T02:57:19.040Z,12.98
2018-12-12T02:59:48.025Z,13.22
2018-12-12T03:02:16.992Z,12.53
2018-12-12T03:04:46.006Z,13.28
2018-12-12T03:07:15.004Z,15.40
2018-12-12T03:09:43.979Z,12.97
2018-12-12T03:12:12.874Z,14.68
2018-12-12T03:14:41.802Z,14.18
2018-12-12T03:17:10.769Z,14.07
2018-12-12T03:19:39.662Z,13.55
2018-12-12T03:22:08.649Z,13.78
2018-12-12T03:24:37.504Z,12.37
2018-12-12T03:27:06.442Z,11.68
2018-12-12T03:29:35.384Z,13.65
2018-12-12T03:32:07.486Z,13.58
2018-12-12T03:34:36.591Z,14.35
2018-12-12T03:37:05.496Z,14.45
2018-12-12T03:39:34.437Z,14.98
2018-12-12T03:42:03.540Z,12.82
2018-12-12T03:44:32.461Z,14.63
2018-12-12T03:47:01.349Z,14.38
2018-12-12T03:49:30.383Z,14.98
2018-12-12T03:51:59.328Z,15.13
2018-12-12T03:54:28.237Z,13.98
2018-12-12T03:56:57.144Z,14.60
2018-12-12T03:59:26.077Z,16.05
2018-12-12T04:01:55.010Z,15.17
2018-12-12T04:04:23.935Z,13.53
2018-12-12T04:06:52.852Z,15.35
2018-12-12T04:09:22.173Z,17.90
2018-12-12T04:11:51.073Z,16.42
2018-12-12T04:14:20.068Z,13.38
2018-12-12T04:16:49.034Z,13.83
2018-12-12T04:19:18.104Z,14.90
2018-12-12T04:21:49.216Z,13.70
2018-12-12T04:24:18.136Z,14.00
2018-12-12T04:26:47.364Z,14.58
2018-12-12T04:29:16.485Z,16.70
2018-12-12T04:31:45.446Z,16.03
2018-12-12T04:34:14.363Z,15.10
2018-12-12T04:36:43.252Z,15.88
2018-12-12T04:39:12.175Z,15.38
2018-12-12T04:41:41.232Z,16.15
2018-12-12T04:44:10.132Z,14.83
2018-12-12T04:46:38.996Z,16.00
2018-12-12T04:49:07.930Z,15.58
2018-12-12T04:51:36.910Z,14.75
2018-12-12T04:54:06.044Z,14.95
2018-12-12T04:56:35.120Z,15.88
2018-12-12T04:59:04.394Z,12.53
2018-12-12T05:01:33.484Z,14.70
2018-12-12T05:04:02.408Z,16.15
2018-12-12T05:06:31.495Z,13.37
2018-12-12T05:09:00.451Z,10.43
2018-12-12T05:11:29.473Z,6.92
2018-12-12T05:13:58.408Z,9.55
2018-12-12T05:16:27.395Z,5.12
2018-12-12T05:18:56.264Z,4.83
2018-12-12T05:21:25.157Z,3.87
2018-12-12T05:23:54.093Z,3.25
2018-12-12T05:26:23.132Z,5.53
2018-12-12T05:28:52.032Z,3.33
2018-12-12T05:31:21.008Z,3.20
2018-12-12T05:33:49.895Z,3.37
2018-12-12T05:36:18.825Z,3.50
2018-12-12T05:38:47.775Z,2.90
2018-12-12T05:41:16.666Z,3.40
2018-12-12T05:43:45.583Z,2.75
2018-12-12T05:46:14.563Z,2.45
2018-12-12T05:48:43.632Z,2.55
2018-12-12T05:51:12.471Z,2.60
2018-12-12T05:53:41.463Z,3.55
2018-12-12T05:56:14.044Z,2.65
2018-12-12T05:58:41.200Z,3.37
2018-12-12T06:01:10.285Z,4.75
2018-12-12T06:03:39.256Z,2.90
2018-12-12T06:06:08.228Z,2.90
2018-12-12T06:08:37.167Z,3.87
2018-12-12T06:11:06.087Z,4.22
2018-12-12T06:13:34.948Z,3.60
2018-12-12T06:16:03.838Z,3.52
2018-12-12T06:18:32.945Z,3.80
2018-12-12T06:21:02.068Z,3.80
2018-12-12T06:23:31.110Z,4.25
2018-12-12T06:26:00.018Z,4.17
2018-12-12T06:28:29.007Z,3.87
2018-12-12T06:30:58.090Z,3.30
2018-12-12T06:33:26.889Z,3.67
2018-12-12T06:35:55.831Z,5.65
2018-12-12T06:38:25.209Z,4.45
2018-12-12T06:40:54.235Z,3.42
2018-12-12T06:43:23.204Z,4.47
2018-12-12T06:45:52.135Z,5.33
2018-12-12T06:48:21.063Z,5.12
2018-12-12T06:50:49.936Z,3.58
2018-12-12T06:53:18.944Z,3.45
2018-12-12T06:55:47.817Z,4.37
2018-12-12T06:58:16.741Z,3.73
2018-12-12T07:00:45.797Z,3.87
2018-12-12T07:03:14.666Z,4.62
2018-12-12T07:05:43.880Z,3.20
2018-12-12T07:08:12.760Z,5.33
2018-12-12T07:10:41.647Z,4.60
2018-12-12T07:13:10.531Z,5.40
2018-12-12T07:15:39.412Z,5.00
2018-12-12T07:18:08.349Z,4.35
2018-12-12T07:20:37.309Z,6.40
2018-12-12T07:23:06.193Z,5.08
2018-12-12T07:25:35.095Z,5.25
2018-12-12T07:28:04.151Z,4.37
2018-12-12T07:30:33.009Z,5.37
2018-12-12T07:33:02.096Z,5.33
2018-12-12T07:35:30.988Z,4.70
2018-12-12T07:37:59.963Z,4.37
2018-12-12T07:40:29.013Z,5.05
2018-12-12T07:42:59.885Z,4.75
2018-12-12T07:45:46.665Z,5.25
2018-12-12T07:48:17.617Z,5.27
2018-12-12T07:50:52.039Z,5.70
2018-12-12T07:53:26.793Z,5.37
2018-12-12T07:55:55.664Z,4.67
2018-12-12T07:58:24.565Z,6.67
2018-12-12T08:00:53.525Z,4.80
2018-12-12T08:03:22.461Z,6.28
2018-12-12T08:05:51.481Z,6.25
2018-12-12T08:08:20.360Z,5.28
2018-12-12T08:10:49.292Z,7.40
2018-12-12T08:13:18.222Z,8.03
2018-12-12T08:15:47.430Z,6.70
2018-12-12T08:18:16.336Z,7.83
2018-12-12T08:20:45.443Z,6.62
2018-12-12T08:23:14.963Z,6.45
2018-12-12T08:25:44.247Z,8.10
2018-12-12T08:28:13.312Z,6.73
2018-12-12T08:30:42.171Z,7.55
2018-12-12T08:33:11.492Z,6.85
2018-12-12T08:35:40.460Z,7.42
2018-12-12T08:38:09.437Z,7.80
2018-12-12T08:40:38.527Z,7.37
2018-12-12T08:43:08.423Z,7.87
2018-12-12T08:45:37.403Z,8.10
2018-12-12T08:48:06.337Z,8.80
2018-12-12T08:50:35.396Z,7.90
2018-12-12T08:53:04.760Z,6.40
2018-12-12T08:55:33.688Z,6.72
2018-12-12T08:58:02.570Z,9.28
2018-12-12T09:00:31.498Z,6.20
2018-12-12T09:03:00.499Z,6.72
2018-12-12T09:05:29.533Z,6.95
2018-12-12T09:07:58.523Z,8.08
2018-12-12T09:10:27.733Z,6.72
2018-12-12T09:12:56.632Z,7.55
2018-12-12T09:15:25.490Z,9.00
2018-12-12T09:17:54.536Z,8.05
2018-12-12T09:20:23.622Z,10.13
2018-12-12T09:22:52.572Z,9.73
2018-12-12T09:25:21.630Z,7.40
2018-12-12T09:27:50.655Z,11.43
2018-12-12T09:30:21.581Z,10.32
2018-12-12T09:32:52.548Z,9.13
2018-12-12T09:35:40.275Z,8.60
2018-12-12T09:38:10.257Z,8.60
2018-12-12T09:40:39.665Z,8.25
2018-12-12T09:43:08.694Z,9.60
2018-12-12T09:45:38.027Z,9.15
2018-12-12T09:48:07.113Z,7.95
2018-12-12T09:50:35.956Z,7.80
2018-12-12T09:53:06.947Z,7.83
2018-12-12T09:55:35.806Z,8.80
2018-12-12T09:58:05.005Z,7.45
2018-12-12T10:00:33.916Z,7.35
2018-12-12T10:03:02.860Z,7.90
2018-12-12T10:05:31.875Z,7.00
2018-12-12T10:08:00.788Z,7.87
2018-12-12T10:10:29.867Z,7.40
2018-12-12T10:12:58.790Z,8.98
2018-12-12T10:15:27.838Z,7.60
2018-12-12T10:17:56.748Z,9.60
2018-12-12T10:20:25.814Z,7.75
2018-12-12T10:22:54.770Z,7.83
2018-12-12T10:25:23.695Z,8.75
2018-12-12T10:27:52.721Z,9.55
2018-12-12T10:30:21.607Z,9.00
2018-12-12T10:32:50.499Z,7.55
2018-12-12T10:35:19.451Z,7.58
2018-12-12T10:37:48.316Z,8.63
2018-12-12T10:40:17.232Z,7.87
2018-12-12T10:42:46.166Z,8.95
2018-12-12T10:45:15.060Z,8.45
2018-12-12T10:47:43.964Z,10.03
2018-12-12T10:50:13.079Z,8.08
2018-12-12T10:52:41.881Z,8.78
2018-12-12T10:55:11.064Z,10.43
2018-12-12T10:57:40.039Z,7.40
2018-12-12T11:00:12.901Z,9.03
2018-12-12T11:02:47.159Z,7.10
2018-12-12T11:05:16.153Z,8.13
2018-12-12T11:07:45.093Z,8.45
2018-12-12T11:10:14.223Z,7.62
2018-12-12T11:12:43.081Z,7.72
2018-12-12T11:15:12.069Z,7.75
2018-12-12T11:17:40.977Z,8.08
2018-12-12T11:20:09.864Z,7.80
2018-12-12T11:22:38.787Z,7.53
2018-12-12T11:25:07.837Z,8.00
2018-12-12T11:27:36.851Z,8.95
2018-12-12T11:30:06.968Z,9.03
2018-12-12T11:32:36.970Z,8.43
2018-12-12T11:35:06.200Z,8.53
2018-12-12T11:37:35.180Z,8.83
2018-12-12T11:40:04.689Z,8.48
2018-12-12T11:42:33.585Z,7.83
2018-12-12T11:45:02.648Z,10.50
2018-12-12T11:47:31.624Z,8.48
2018-12-12T11:50:00.519Z,8.38
2018-12-12T11:52:29.541Z,8.80
2018-12-12T11:54:58.777Z,8.43
2018-12-12T11:57:28.196Z,8.75
2018-12-12T11:59:57.117Z,8.80
2018-12-12T12:02:26.115Z,8.80
2018-12-12T12:04:55.142Z,8.10
2018-12-12T12:07:24.116Z,7.62
2018-12-12T12:09:53.220Z,7.85
2018-12-12T12:12:22.200Z,7.60
2018-12-12T12:14:53.224Z,7.87
2018-12-12T12:17:22.125Z,7.70
2018-12-12T12:19:50.999Z,7.33
2018-12-12T12:22:19.996Z,8.65
2018-12-12T12:24:48.897Z,7.58
2018-12-12T12:27:18.217Z,7.20
2018-12-12T12:29:47.101Z,6.78
2018-12-12T12:32:16.118Z,6.58
2018-12-12T12:34:44.963Z,6.55
2018-12-12T12:37:13.889Z,7.03
2018-12-12T12:39:42.925Z,6.87
2018-12-12T12:42:11.821Z,6.95
2018-12-12T12:44:40.712Z,6.75
2018-12-12T12:47:09.669Z,7.03
2018-12-12T12:49:38.543Z,5.90
2018-12-12T12:52:07.538Z,6.35
2018-12-12T12:54:36.453Z,6.33
2018-12-12T12:57:05.431Z,6.70
2018-12-12T12:59:34.457Z,6.25
2018-12-12T13:02:03.334Z,6.12
2018-12-12T13:04:32.228Z,6.00
2018-12-12T13:07:01.161Z,6.15
2018-12-12T13:09:30.101Z,7.28
2018-12-12T13:11:59.163Z,6.42
2018-12-12T13:14:28.197Z,6.95
2018-12-12T13:16:57.121Z,6.62
2018-12-12T13:19:26.028Z,6.87
2018-12-12T13:21:58.719Z,6.60
2018-12-12T13:24:27.626Z,8.45
2018-12-12T13:26:57.604Z,6.72
2018-12-12T13:29:26.549Z,6.97
2018-12-12T13:31:57.156Z,6.30
2018-12-12T13:34:26.033Z,6.33
2018-12-12T13:36:54.943Z,5.90
2018-12-12T13:39:24.210Z,6.75
2018-12-12T13:41:56.062Z,6.67
2018-12-12T13:44:24.988Z,7.42
2018-12-12T13:46:54.068Z,7.00
2018-12-12T13:49:22.947Z,7.25
2018-12-12T13:51:51.842Z,7.22
2018-12-12T13:54:20.812Z,6.90
2018-12-12T13:56:49.724Z,6.70
2018-12-12T13:59:18.611Z,7.15
2018-12-12T14:01:47.578Z,7.22
2018-12-12T14:04:22.589Z,6.50
2018-12-12T14:06:47.673Z,6.40
2018-12-12T14:09:16.546Z,5.92
2018-12-12T14:11:45.442Z,6.17
2018-12-12T14:14:14.372Z,5.85
2018-12-12T14:16:43.292Z,6.22
2018-12-12T14:19:12.278Z,5.90
2018-12-12T14:21:41.209Z,5.72
2018-12-12T14:24:10.163Z,5.70
2018-12-12T14:26:39.415Z,6.00
2018-12-12T14:29:08.351Z,5.20
2018-12-12T14:31:37.344Z,5.62
2018-12-12T14:34:06.286Z,5.70
2018-12-12T14:36:35.193Z,5.25
2018-12-12T14:39:07.080Z,5.65
2018-12-12T14:41:37.015Z,5.47
2018-12-12T14:44:05.913Z,6.00
2018-12-12T14:46:34.787Z,6.58
2018-12-12T14:49:03.817Z,5.90
2018-12-12T14:51:32.868Z,6.05
2018-12-12T14:54:01.779Z,6.08
2018-12-12T14:56:30.984Z,5.80
2018-12-12T14:58:59.907Z,6.20
2018-12-12T15:01:28.808Z,5.75
2018-12-12T15:03:57.728Z,6.10
2018-12-12T15:06:27.201Z,6.03
2018-12-12T15:08:56.281Z,6.97
2018-12-12T15:11:25.168Z,5.62
2018-12-12T15:13:54.121Z,6.00
2018-12-12T15:16:23.127Z,6.12
2018-12-12T15:18:53.228Z,6.10
2018-12-12T15:21:25.873Z,6.30
2018-12-12T15:23:54.235Z,5.58
2018-12-12T15:26:23.119Z,6.40
2018-12-12T15:28:52.009Z,6.12
2018-12-12T15:31:21.045Z,6.20
2018-12-12T15:33:50.056Z,6.50
2018-12-12T15:36:18.997Z,6.45
2018-12-12T15:38:47.951Z,6.25
2018-12-12T15:41:16.932Z,6.70
2018-12-12T15:43:45.861Z,6.55
2018-12-12T15:46:14.782Z,6.30
2018-12-12T15:48:43.777Z,6.55
2018-12-12T15:51:12.777Z,6.55
2018-12-12T15:53:42.716Z,6.90
2018-12-12T15:56:11.755Z,6.80
2018-12-12T15:58:40.718Z,6.83
2018-12-12T16:01:09.722Z,8.08
2018-12-12T16:03:38.609Z,6.90
2018-12-12T16:06:07.573Z,7.85
2018-12-12T16:08:36.546Z,7.22
2018-12-12T16:11:08.356Z,7.22
2018-12-12T16:13:36.725Z,6.72
2018-12-12T16:16:05.604Z,6.95
2018-12-12T16:18:34.747Z,7.10
2018-12-12T16:21:03.600Z,6.97
2018-12-12T16:23:33.109Z,6.87
2018-12-12T16:26:02.032Z,7.67
2018-12-12T16:28:31.087Z,5.90
2018-12-12T16:31:00.194Z,6.92
2018-12-12T16:33:29.137Z,6.37
2018-12-12T16:35:58.048Z,6.60
2018-12-12T16:38:27.109Z,8.43
2018-12-12T16:40:56.015Z,5.62
2018-12-12T16:43:25.319Z,5.58
2018-12-12T16:45:56.194Z,5.55
2018-12-12T16:48:25.155Z,4.97
2018-12-12T16:50:54.075Z,5.22
2018-12-12T16:53:23.013Z,6.03
2018-12-12T16:55:51.936Z,4.50
2018-12-12T16:58:20.939Z,5.22
2018-12-12T17:00:49.886Z,5.95
2018-12-12T17:03:18.932Z,6.40
2018-12-12T17:05:47.829Z,5.78
2018-12-12T17:08:16.787Z,5.78
2018-12-12T17:10:45.740Z,5.90
2018-12-12T17:13:15.027Z,4.83
2018-12-12T17:15:44.012Z,5.10
2018-12-12T17:18:13.038Z,6.08
2018-12-12T17:20:44.387Z,5.15
2018-12-12T17:23:13.643Z,5.62
2018-12-12T17:25:42.618Z,4.83
2018-12-12T17:28:11.508Z,5.10
2018-12-12T17:30:40.741Z,4.50
2018-12-12T17:33:09.712Z,5.60
2018-12-12T17:35:38.845Z,4.20
2018-12-12T17:38:08.048Z,3.47
2018-12-12T17:40:37.045Z,3.60
2018-12-12T17:43:06.053Z,4.80
2018-12-12T17:45:37.050Z,3.55
2018-12-12T17:48:06.182Z,3.80
2018-12-12T17:50:35.111Z,4.28
2018-12-12T17:53:04.141Z,3.95
2018-12-12T17:55:33.082Z,3.90
2018-12-12T17:58:02.001Z,3.98
2018-12-12T18:00:31.001Z,3.70
2018-12-12T18:03:02.116Z,4.37
2018-12-12T18:05:36.725Z,3.50
2018-12-12T18:08:05.777Z,4.00
2018-12-12T18:10:35.679Z,3.70
2018-12-12T18:13:09.767Z,4.03
2018-12-12T18:15:40.780Z,4.87
2018-12-12T18:18:12.002Z,4.40
2018-12-12T18:20:41.066Z,5.42
2018-12-12T18:23:12.008Z,4.83
2018-12-12T18:25:43.111Z,5.15
2018-12-12T18:28:12.021Z,5.05
2018-12-12T18:30:40.928Z,6.00
2018-12-12T18:33:11.869Z,5.30
2018-12-12T18:35:46.821Z,5.55
2018-12-12T18:38:15.919Z,5.45
2018-12-12T18:40:45.193Z,5.80
2018-12-12T18:43:16.199Z,7.27
2018-12-12T18:45:45.304Z,5.75
2018-12-12T18:48:14.552Z,6.40
2018-12-12T18:50:46.305Z,7.17
2018-12-12T18:53:28.647Z,9.10
2018-12-12T18:55:59.765Z,6.90
2018-12-12T18:58:28.702Z,8.08
2018-12-12T19:00:57.750Z,6.90
2018-12-12T19:03:27.885Z,8.30
2018-12-12T19:05:59.901Z,8.33
2018-12-12T19:08:29.036Z,7.28
2018-12-12T19:10:58.237Z,6.97
2018-12-12T19:13:27.254Z,8.18
2018-12-12T19:15:56.392Z,11.60
2018-12-12T19:18:25.345Z,11.73
2018-12-12T19:20:59.900Z,13.18
2018-12-12T19:23:25.495Z,13.70
2018-12-12T19:25:54.495Z,18.98
2018-12-12T19:28:23.564Z,8.78
2018-12-12T19:30:52.824Z,11.95
2018-12-12T19:33:21.859Z,15.60
2018-12-12T19:35:50.861Z,10.58
2018-12-12T19:38:20.341Z,7.65
2018-12-12T19:40:49.342Z,10.15
2018-12-12T19:43:18.393Z,11.35
2018-12-12T19:45:47.317Z,22.70
2018-12-12T19:48:16.327Z,14.65
2018-12-12T19:50:45.270Z,8.60
2018-12-12T19:53:14.535Z,11.43
2018-12-12T19:55:43.598Z,7.30
2018-12-12T19:58:12.851Z,6.90
2018-12-12T20:00:41.857Z,6.13
2018-12-12T20:03:11.088Z,6.20
2018-12-12T20:05:41.469Z,6.10
2018-12-12T20:08:11.826Z,9.58
2018-12-12T20:10:42.627Z,7.40
2018-12-12T20:13:12.620Z,8.05
2018-12-12T20:15:44.055Z,8.60
2018-12-12T20:18:13.143Z,6.73
2018-12-12T20:20:42.185Z,8.58
2018-12-12T20:23:11.351Z,8.30
2018-12-12T20:25:40.341Z,7.00
2018-12-12T20:28:09.529Z,7.73
2018-12-12T20:30:38.495Z,7.00
2018-12-12T20:33:07.585Z,6.37
2018-12-12T20:35:36.709Z,5.85
2018-12-12T20:38:07.932Z,7.17
2018-12-12T20:40:38.426Z,7.00
2018-12-12T20:43:07.337Z,6.85
2018-12-12T20:45:36.507Z,7.92
2018-12-12T20:48:05.479Z,6.58
2018-12-12T20:50:35.315Z,8.23
2018-12-12T20:53:05.233Z,6.95
2018-12-12T20:55:34.274Z,7.78
2018-12-12T20:58:03.542Z,7.47
2018-12-12T21:00:32.562Z,7.75
2018-12-12T21:03:01.692Z,7.30
2018-12-12T21:05:30.760Z,7.12
2018-12-12T21:08:00.132Z,7.72
2018-12-12T21:10:30.580Z,12.70
2018-12-12T21:12:59.731Z,7.50
2018-12-12T21:15:28.954Z,6.35
2018-12-12T21:17:58.354Z,7.20
2018-12-12T21:20:27.243Z,6.78
2018-12-12T21:22:56.823Z,8.43
2018-12-12T21:25:28.884Z,8.73
2018-12-12T21:27:57.775Z,7.30
2018-12-12T21:30:26.697Z,7.03
2018-12-12T21:32:55.839Z,8.00
2018-12-12T21:35:24.866Z,7.17
2018-12-12T21:37:53.797Z,7.90
2018-12-12T21:40:22.758Z,7.37
2018-12-12T21:42:51.714Z,7.47
2018-12-12T21:45:20.670Z,6.40
2018-12-12T21:47:49.702Z,9.20
2018-12-12T21:50:19.182Z,14.73
2018-12-12T21:52:49.259Z,10.93
2018-12-12T21:55:20.020Z,7.35
2018-12-12T21:57:49.084Z,8.78
2018-12-12T22:00:18.117Z,8.67
2018-12-12T22:02:47.210Z,9.65
2018-12-12T22:05:16.743Z,10.50
2018-12-12T22:07:45.709Z,11.48
2018-12-12T22:10:14.736Z,8.55
2018-12-12T22:12:44.629Z,10.55
2018-12-12T22:15:13.527Z,8.33
2018-12-12T22:17:42.462Z,8.70
2018-12-12T22:20:11.409Z,9.50
2018-12-12T22:22:40.508Z,8.83
2018-12-12T22:25:09.429Z,9.33
2018-12-12T22:27:38.371Z,9.05
2018-12-12T22:30:07.499Z,9.63
2018-12-12T22:32:36.415Z,9.18
2018-12-12T22:35:05.676Z,11.15
2018-12-12T22:37:34.712Z,16.10
2018-12-12T22:40:03.863Z,8.88
2018-12-12T22:42:33.313Z,9.38
2018-12-12T22:45:02.311Z,9.63
2018-12-12T22:47:31.233Z,7.42
2018-12-12T22:50:00.154Z,18.17
2018-12-12T22:52:29.081Z,12.33
2018-12-12T22:54:58.027Z,12.30
2018-12-12T22:57:26.901Z,12.85
2018-12-12T22:59:55.816Z,10.55
2018-12-12T23:02:24.667Z,7.83
2018-12-12T23:04:53.630Z,8.30
2018-12-12T23:07:22.604Z,6.97
2018-12-12T23:09:51.476Z,7.45
2018-12-12T23:12:20.701Z,9.03
2018-12-12T23:14:49.556Z,11.10
2018-12-12T23:17:18.566Z,7.55
2018-12-12T23:19:47.447Z,7.33
2018-12-12T23:22:16.366Z,8.10
2018-12-12T23:24:45.336Z,8.75
2018-12-12T23:27:15.424Z,12.95
2018-12-12T23:29:44.500Z,12.50
2018-12-12T23:32:13.383Z,8.50
2018-12-12T23:34:42.261Z,15.30
2018-12-12T23:37:11.177Z,14.93
2018-12-12T23:39:41.146Z,25.48
2018-12-12T23:42:10.058Z,14.53
2018-12-12T23:44:38.949Z,12.63
2018-12-12T23:47:08.040Z,11.80
2018-12-12T23:49:36.996Z,10.10
2018-12-12T23:52:05.893Z,7.80
2018-12-12T23:54:34.924Z,10.13
2018-12-12T23:57:03.825Z,8.40
2018-12-12T23:59:32.730Z,9.85
